Time;durP1;ratioP1;P1;durP2;ratioP2;P2;SDS_P1;SDS_P2;PMS_P1;PMS_P2;Temp;Humidity;BMP_temperature;BMP_pressure;BME280_temperature;BME280_humidity;BME280_pressure;Samples;Min_cycle;Max_cycle;Signal;HPM_P1;HPM_P2
2023/09/26 00:00:43;;;;;;;4.63;3.10;;;13.90;99.90;;;;;;4172460;28;20652;-78
2023/09/26 00:02:43;;;;;;;4.40;3.23;;;13.90;99.90;;;;;;4175839;28;20221;-79
2023/09/26 00:04:47;;;;;;;5.67;2.83;;;13.90;99.90;;;;;;4177047;28;20212;-79
2023/09/26 00:06:49;;;;;;;4.40;3.23;;;13.90;99.90;;;;;;4174977;28;20210;-78
2023/09/26 00:08:52;;;;;;;5.70;3.17;;;13.90;99.90;;;;;;4172450;28;20293;-78
2023/09/26 00:10:54;;;;;;;4.20;2.97;;;13.90;99.90;;;;;;4172372;28;20231;-77
2023/09/26 00:12:57;;;;;;;4.97;3.30;;;13.90;99.90;;;;;;4172485;28;20198;-76
2023/09/26 00:15:00;;;;;;;4.77;3.33;;;13.80;99.90;;;;;;4176776;28;20336;-79
2023/09/26 00:17:05;;;;;;;5.47;3.20;;;13.80;99.90;;;;;;4173712;28;20721;-78
2023/09/26 00:19:07;;;;;;;5.53;3.23;;;13.70;99.90;;;;;;4169628;28;20207;-79
2023/09/26 00:21:10;;;;;;;4.60;3.03;;;13.80;99.90;;;;;;4169851;28;20284;-78
2023/09/26 00:23:12;;;;;;;5.10;3.20;;;13.70;99.90;;;;;;4172432;28;20299;-79
2023/09/26 00:25:14;;;;;;;5.00;3.37;;;13.70;99.90;;;;;;4168203;28;20241;-78
2023/09/26 00:27:17;;;;;;;4.73;3.30;;;13.70;99.90;;;;;;4173120;28;20224;-79
2023/09/26 00:29:19;;;;;;;4.67;3.50;;;13.70;99.90;;;;;;4173251;28;20208;-75
2023/09/26 00:31:21;;;;;;;7.67;3.37;;;13.70;99.90;;;;;;4168228;28;20210;-78
2023/09/26 00:33:24;;;;;;;5.40;3.17;;;13.60;99.90;;;;;;4171647;28;20268;-77
2023/09/26 00:35:26;;;;;;;4.83;3.17;;;13.60;99.90;;;;;;4169295;28;20337;-78
2023/09/26 00:37:28;;;;;;;4.67;3.40;;;13.60;99.90;;;;;;4163508;28;21131;-77
2023/09/26 00:39:30;;;;;;;4.67;3.23;;;13.60;99.90;;;;;;4174707;28;20221;-79
2023/09/26 00:41:33;;;;;;;5.30;3.30;;;13.60;99.90;;;;;;4175855;28;20224;-78
2023/09/26 00:43:36;;;;;;;4.23;3.30;;;13.60;99.90;;;;;;4175334;28;20244;-78
2023/09/26 00:45:38;;;;;;;4.20;3.00;;;13.50;99.90;;;;;;4177911;28;20302;-77
2023/09/26 00:47:40;;;;;;;6.27;3.23;;;13.50;99.90;;;;;;4175550;28;20209;-78
2023/09/26 00:49:44;;;;;;;5.50;3.37;;;13.50;99.90;;;;;;4183468;28;20217;-78
2023/09/26 00:51:46;;;;;;;4.67;3.13;;;13.50;99.90;;;;;;4180579;28;20206;-78
2023/09/26 00:53:47;;;;;;;4.87;3.50;;;13.50;99.90;;;;;;4183134;28;20207;-78
2023/09/26 00:55:50;;;;;;;6.37;3.60;;;13.40;99.90;;;;;;4184166;28;20370;-79
2023/09/26 00:57:55;;;;;;;6.23;3.00;;;13.40;99.90;;;;;;4179080;28;20300;-78
2023/09/26 00:59:56;;;;;;;5.67;3.30;;;13.40;99.90;;;;;;4178585;28;20275;-78
2023/09/26 01:01:58;;;;;;;4.40;3.00;;;13.50;99.90;;;;;;4180825;28;20813;-78
2023/09/26 01:04:01;;;;;;;4.80;3.20;;;13.40;99.90;;;;;;4179879;28;20237;-76
2023/09/26 01:06:05;;;;;;;4.43;3.20;;;13.40;99.90;;;;;;4181964;28;20289;-78
2023/09/26 01:08:07;;;;;;;4.83;3.30;;;13.30;99.90;;;;;;4181089;28;20216;-77
2023/09/26 01:10:10;;;;;;;4.83;3.50;;;13.30;99.90;;;;;;4182129;28;20201;-78
2023/09/26 01:12:12;;;;;;;4.83;3.43;;;13.30;99.90;;;;;;4179658;28;20206;-77
2023/09/26 01:14:14;;;;;;;5.90;3.60;;;13.30;99.90;;;;;;4183010;28;20207;-77
2023/09/26 01:16:16;;;;;;;7.77;4.40;;;13.30;99.90;;;;;;4183850;28;20250;-78
2023/09/26 01:18:23;;;;;;;5.23;3.63;;;13.30;99.90;;;;;;4180260;28;20212;-79
2023/09/26 01:20:25;;;;;;;7.83;4.30;;;13.30;99.90;;;;;;4185071;28;20227;-78
2023/09/26 01:22:31;;;;;;;4.57;3.33;;;13.30;99.90;;;;;;4187407;28;20229;-78
2023/09/26 01:24:37;;;;;;;4.83;3.50;;;13.20;99.90;;;;;;4186039;28;20211;-78
2023/09/26 01:26:39;;;;;;;4.83;3.50;;;13.30;99.90;;;;;;4188046;28;20225;-75
2023/09/26 01:28:41;;;;;;;6.83;3.80;;;13.20;99.90;;;;;;4189885;28;20194;-78
2023/09/26 01:30:42;;;;;;;5.80;3.40;;;13.20;99.90;;;;;;4188802;28;20336;-78
2023/09/26 01:32:44;;;;;;;6.17;3.93;;;13.20;99.90;;;;;;4183238;28;20788;-79
2023/09/26 01:34:46;;;;;;;5.53;3.30;;;13.20;99.90;;;;;;4185421;28;20204;-79
2023/09/26 01:36:48;;;;;;;4.00;3.33;;;13.20;99.90;;;;;;4178315;28;20199;-79
2023/09/26 01:38:50;;;;;;;3.87;3.10;;;13.10;99.90;;;;;;4174776;28;20220;-79
2023/09/26 01:40:52;;;;;;;5.37;3.70;;;13.20;99.90;;;;;;4169561;28;20628;-79
2023/09/26 01:42:54;;;;;;;4.90;3.60;;;13.20;99.90;;;;;;4172143;28;20290;-78
2023/09/26 01:44:56;;;;;;;4.73;3.50;;;13.20;99.90;;;;;;4174570;28;20209;-78
2023/09/26 01:46:57;;;;;;;4.93;3.30;;;13.10;99.90;;;;;;4174810;28;20685;-79
2023/09/26 01:48:59;;;;;;;4.93;3.50;;;13.10;99.90;;;;;;4167324;28;20211;-79
2023/09/26 01:51:05;;;;;;;3.93;3.00;;;13.10;99.90;;;;;;4171592;28;20207;-79
2023/09/26 01:53:08;;;;;;;4.33;3.27;;;13.10;99.90;;;;;;4179152;28;20208;-77
2023/09/26 01:55:14;;;;;;;4.93;3.60;;;13.10;99.90;;;;;;4173406;28;20331;-78
2023/09/26 01:57:18;;;;;;;5.50;3.80;;;13.10;99.90;;;;;;4173433;28;20269;-79
2023/09/26 01:59:20;;;;;;;5.63;4.10;;;13.00;99.90;;;;;;4171406;28;20673;-75
2023/09/26 02:01:21;;;;;;;7.63;3.80;;;13.00;99.90;;;;;;4168152;28;20225;-78
2023/09/26 02:03:23;;;;;;;6.43;3.70;;;13.00;99.90;;;;;;4172635;28;20676;-78
2023/09/26 02:05:24;;;;;;;4.07;3.50;;;13.00;99.90;;;;;;4172844;28;20311;-78
2023/09/26 02:07:26;;;;;;;6.23;3.90;;;13.00;99.90;;;;;;4170655;28;20204;-78
2023/09/26 02:09:28;;;;;;;6.30;4.23;;;13.00;99.90;;;;;;4172452;28;20209;-78
2023/09/26 02:11:30;;;;;;;5.60;4.00;;;13.00;99.90;;;;;;4173601;28;20220;-78
2023/09/26 02:13:33;;;;;;;4.57;3.83;;;13.00;99.90;;;;;;4172350;28;20242;-79
2023/09/26 02:15:36;;;;;;;4.40;3.30;;;13.00;99.90;;;;;;4175162;28;20254;-79
2023/09/26 02:17:39;;;;;;;5.50;3.67;;;12.90;99.90;;;;;;4170628;28;20653;-78
2023/09/26 02:19:40;;;;;;;5.20;3.63;;;12.90;99.90;;;;;;4172941;28;20614;-78
2023/09/26 02:21:42;;;;;;;6.33;4.07;;;12.90;99.90;;;;;;4166941;28;20224;-78
2023/09/26 02:23:44;;;;;;;4.70;3.70;;;12.90;99.90;;;;;;4170640;28;20212;-78
2023/09/26 02:25:50;;;;;;;4.87;3.60;;;12.90;99.90;;;;;;4172689;28;20276;-79
2023/09/26 02:27:51;;;;;;;4.83;3.90;;;12.90;99.90;;;;;;4169549;28;20689;-78
2023/09/26 02:29:55;;;;;;;4.60;3.30;;;12.90;99.90;;;;;;4172036;28;20632;-78
2023/09/26 02:31:57;;;;;;;6.60;3.93;;;12.80;99.90;;;;;;4169697;28;20209;-78
2023/09/26 02:33:59;;;;;;;4.23;3.30;;;12.80;99.90;;;;;;4167539;28;20255;-78
2023/09/26 02:36:01;;;;;;;3.97;3.57;;;12.80;99.90;;;;;;4171784;28;21008;-77
2023/09/26 02:38:03;;;;;;;4.43;3.37;;;12.80;99.90;;;;;;4162905;28;20227;-78
2023/09/26 02:40:07;;;;;;;4.90;3.43;;;12.70;99.90;;;;;;4175642;28;20211;-78
2023/09/26 02:42:08;;;;;;;4.87;3.43;;;12.70;99.90;;;;;;4175764;28;20697;-79
2023/09/26 02:44:12;;;;;;;6.90;3.57;;;12.70;99.90;;;;;;4177522;28;20238;-78
2023/09/26 02:46:15;;;;;;;4.90;3.50;;;12.70;99.90;;;;;;4175638;28;20311;-77
2023/09/26 02:48:17;;;;;;;5.37;3.90;;;12.70;99.90;;;;;;4186722;28;20222;-78
2023/09/26 02:50:21;;;;;;;4.10;3.10;;;12.60;99.90;;;;;;4180104;28;20206;-78
2023/09/26 02:52:23;;;;;;;6.10;3.93;;;12.60;99.90;;;;;;4179408;28;20238;-78
2023/09/26 02:54:27;;;;;;;4.93;3.43;;;12.60;99.90;;;;;;4180684;28;20235;-77
2023/09/26 02:56:29;;;;;;;5.83;3.70;;;12.60;99.90;;;;;;4186030;28;20234;-77
2023/09/26 02:58:30;;;;;;;5.40;3.93;;;12.60;99.90;;;;;;4184326;28;20210;-78
2023/09/26 03:00:32;;;;;;;5.43;3.53;;;12.50;99.90;;;;;;4177817;28;20732;-76
2023/09/26 03:02:36;;;;;;;6.23;3.80;;;12.50;99.90;;;;;;4177422;28;20293;-77
2023/09/26 03:04:37;;;;;;;5.37;4.00;;;12.50;99.90;;;;;;4186421;28;20243;-77
2023/09/26 03:06:39;;;;;;;4.97;3.50;;;12.50;99.90;;;;;;4179611;28;20219;-77
2023/09/26 03:08:41;;;;;;;5.10;3.60;;;12.40;99.90;;;;;;4182388;28;20207;-78
2023/09/26 03:10:43;;;;;;;6.30;4.10;;;12.40;99.90;;;;;;4178247;28;20207;-77
2023/09/26 03:12:46;;;;;;;5.00;3.70;;;12.40;99.90;;;;;;4177358;28;20203;-77
2023/09/26 03:14:47;;;;;;;5.87;3.97;;;12.40;99.90;;;;;;4183105;28;20256;-77
2023/09/26 03:16:49;;;;;;;5.00;3.83;;;12.30;99.90;;;;;;4180483;28;20204;-77
2023/09/26 03:18:55;;;;;;;5.73;3.67;;;12.30;99.90;;;;;;4177498;28;20214;-77
2023/09/26 03:20:57;;;;;;;5.43;3.87;;;12.30;99.90;;;;;;4179504;28;20290;-78
2023/09/26 03:22:58;;;;;;;5.17;3.87;;;12.30;99.90;;;;;;4178979;28;20275;-77
2023/09/26 03:25:00;;;;;;;5.57;4.00;;;12.30;99.90;;;;;;4182056;28;20209;-78
2023/09/26 03:27:01;;;;;;;6.03;3.63;;;12.20;99.90;;;;;;4179270;28;20206;-77
2023/09/26 03:29:03;;;;;;;4.97;3.87;;;12.30;99.90;;;;;;4185713;28;20722;-77
2023/09/26 03:31:05;;;;;;;4.63;3.93;;;12.20;99.90;;;;;;4179844;28;20210;-77
2023/09/26 03:33:06;;;;;;;5.90;3.87;;;12.10;99.90;;;;;;4181060;28;20252;-76
2023/09/26 03:35:10;;;;;;;5.90;3.73;;;12.10;99.90;;;;;;4178881;28;20230;-77
2023/09/26 03:37:12;;;;;;;5.03;3.73;;;12.10;99.90;;;;;;4169172;28;20218;-77
2023/09/26 03:39:14;;;;;;;5.33;3.97;;;12.10;99.90;;;;;;4174966;28;20756;-77
2023/09/26 03:41:16;;;;;;;6.07;4.20;;;12.10;99.90;;;;;;4170668;28;20261;-77
2023/09/26 03:43:17;;;;;;;6.07;3.93;;;12.00;99.90;;;;;;4181027;28;20206;-77
2023/09/26 03:45:19;;;;;;;6.30;4.00;;;12.00;99.90;;;;;;4186812;28;20450;-76
2023/09/26 03:47:22;;;;;;;6.33;4.23;;;12.00;99.90;;;;;;4183021;28;20198;-78
2023/09/26 03:49:24;;;;;;;5.67;4.43;;;12.00;99.90;;;;;;4169889;28;20273;-78
2023/09/26 03:51:27;;;;;;;6.80;4.23;;;12.00;99.90;;;;;;4168050;28;20225;-78
2023/09/26 03:53:29;;;;;;;7.40;4.83;;;11.90;99.90;;;;;;4168687;28;20207;-77
2023/09/26 03:55:31;;;;;;;7.07;5.13;;;11.90;99.90;;;;;;4173445;28;20230;-78
2023/09/26 03:57:34;;;;;;;8.03;5.30;;;11.90;99.90;;;;;;4168780;28;20202;-77
2023/09/26 03:59:35;;;;;;;8.97;5.73;;;11.90;99.90;;;;;;4172867;28;20676;-78
2023/09/26 04:01:37;;;;;;;7.97;5.07;;;11.80;99.90;;;;;;4171685;28;20259;-77
2023/09/26 04:03:40;;;;;;;7.90;4.73;;;11.80;99.90;;;;;;4169890;28;20274;-77
2023/09/26 04:05:46;;;;;;;8.33;5.30;;;11.80;99.90;;;;;;4171826;28;20319;-78
2023/09/26 04:07:49;;;;;;;6.23;4.73;;;11.80;99.90;;;;;;4171455;28;20203;-78
2023/09/26 04:09:50;;;;;;;7.87;4.83;;;11.80;99.90;;;;;;4169564;28;20201;-78
2023/09/26 04:11:52;;;;;;;8.30;5.33;;;11.80;99.90;;;;;;4171400;28;20541;-78
2023/09/26 04:13:53;;;;;;;7.17;4.80;;;11.80;99.90;;;;;;4168825;28;20214;-78
2023/09/26 04:15:56;;;;;;;7.87;4.67;;;11.80;99.90;;;;;;4169527;28;20769;-78
2023/09/26 04:17:58;;;;;;;7.90;5.33;;;11.80;99.90;;;;;;4171165;28;20215;-78
2023/09/26 04:20:00;;;;;;;7.23;5.07;;;11.80;99.90;;;;;;4164506;28;20693;-78
2023/09/26 04:22:01;;;;;;;8.67;5.63;;;11.70;99.90;;;;;;4173152;28;20233;-78
2023/09/26 04:24:05;;;;;;;7.73;5.17;;;11.80;99.90;;;;;;4171939;28;20226;-78
2023/09/26 04:26:13;;;;;;;6.20;4.50;;;11.70;99.90;;;;;;4167309;28;20226;-78
2023/09/26 04:28:15;;;;;;;7.13;4.70;;;11.70;99.90;;;;;;4172233;28;20645;-78
2023/09/26 04:30:17;;;;;;;6.87;4.83;;;11.70;99.90;;;;;;4176307;28;20219;-78
2023/09/26 04:32:19;;;;;;;11.37;5.53;;;11.70;99.90;;;;;;4170923;28;20277;-78
2023/09/26 04:34:26;;;;;;;7.40;5.67;;;11.70;99.90;;;;;;4172628;28;20218;-78
2023/09/26 04:36:29;;;;;;;7.10;4.73;;;11.70;99.90;;;;;;4178150;28;20230;-78
2023/09/26 04:38:31;;;;;;;7.53;4.93;;;11.70;99.90;;;;;;4174795;28;20601;-77
2023/09/26 04:40:34;;;;;;;6.37;4.90;;;11.60;99.90;;;;;;4186275;28;20276;-78
2023/09/26 04:42:38;;;;;;;6.77;4.93;;;11.60;99.90;;;;;;4180635;28;20232;-78
2023/09/26 04:44:40;;;;;;;10.77;5.80;;;11.60;99.90;;;;;;4180936;28;20683;-78
2023/09/26 04:46:42;;;;;;;9.10;5.60;;;11.60;99.90;;;;;;4180661;28;20257;-78
2023/09/26 04:48:46;;;;;;;13.00;6.37;;;11.60;99.90;;;;;;4182017;28;20293;-78
2023/09/26 04:50:49;;;;;;;9.43;6.13;;;11.60;99.90;;;;;;4187781;28;20204;-77
2023/09/26 04:52:50;;;;;;;10.00;6.47;;;11.60;99.90;;;;;;4177769;28;20252;-78
2023/09/26 04:54:52;;;;;;;8.47;6.10;;;11.60;99.90;;;;;;4179718;28;20283;-78
2023/09/26 04:56:56;;;;;;;7.60;5.60;;;11.60;99.90;;;;;;4180426;28;20210;-78
2023/09/26 04:58:58;;;;;;;8.03;5.97;;;11.60;99.90;;;;;;4180603;28;20210;-78
2023/09/26 05:01:01;;;;;;;8.93;6.00;;;11.60;99.90;;;;;;4183830;28;20619;-77
2023/09/26 05:03:04;;;;;;;7.40;5.77;;;11.60;99.90;;;;;;4178501;28;20720;-77
2023/09/26 05:05:07;;;;;;;8.17;5.80;;;11.50;99.90;;;;;;4175673;28;20246;-77
2023/09/26 05:07:09;;;;;;;8.13;6.00;;;11.50;99.90;;;;;;4177978;28;20210;-78
2023/09/26 05:09:11;;;;;;;10.43;5.73;;;11.50;99.90;;;;;;4179084;28;20214;-78
2023/09/26 05:11:14;;;;;;;9.23;6.37;;;11.50;99.90;;;;;;4178315;28;20206;-78
2023/09/26 05:13:18;;;;;;;10.33;6.80;;;11.50;99.90;;;;;;4173594;28;20238;-77
2023/09/26 05:15:20;;;;;;;7.77;5.87;;;11.50;99.90;;;;;;4177244;28;20241;-78
2023/09/26 05:17:24;;;;;;;8.37;5.40;;;11.50;99.90;;;;;;4180800;28;20236;-77
2023/09/26 05:19:26;;;;;;;9.10;5.93;;;11.50;99.90;;;;;;4177817;28;20209;-77
2023/09/26 05:21:27;;;;;;;10.63;5.73;;;11.40;99.90;;;;;;4181705;28;20213;-77
2023/09/26 05:23:29;;;;;;;7.37;5.30;;;11.40;99.90;;;;;;4181894;28;20244;-78
2023/09/26 05:25:34;;;;;;;8.73;5.53;;;11.40;99.90;;;;;;4180016;28;20263;-78
2023/09/26 05:27:38;;;;;;;7.27;5.60;;;11.40;99.90;;;;;;4181410;28;20273;-78
2023/09/26 05:29:42;;;;;;;8.40;5.20;;;11.30;99.90;;;;;;4176550;28;20212;-78
2023/09/26 05:31:43;;;;;;;9.83;5.53;;;11.30;99.90;;;;;;4181235;28;20264;-78
2023/09/26 05:33:45;;;;;;;7.80;5.37;;;11.30;99.90;;;;;;4176702;28;20214;-78
2023/09/26 05:35:47;;;;;;;7.63;5.70;;;11.30;99.90;;;;;;4175919;28;20757;-77
2023/09/26 05:37:49;;;;;;;9.73;5.27;;;11.30;99.90;;;;;;4172596;28;20251;-77
2023/09/26 05:39:50;;;;;;;6.50;4.97;;;11.30;99.90;;;;;;4169689;28;20240;-77
2023/09/26 05:41:53;;;;;;;7.97;5.67;;;11.30;99.90;;;;;;4173800;28;20247;-77
2023/09/26 05:43:55;;;;;;;8.77;5.30;;;11.30;99.90;;;;;;4172850;28;20241;-77
2023/09/26 05:45:57;;;;;;;7.43;5.57;;;11.30;99.90;;;;;;4167310;28;20305;-77
2023/09/26 05:48:00;;;;;;;9.00;5.93;;;11.30;99.90;;;;;;4168696;28;20668;-77
2023/09/26 05:50:03;;;;;;;8.30;5.83;;;11.30;99.90;;;;;;4167290;28;20224;-75
2023/09/26 05:52:05;;;;;;;11.10;6.00;;;11.30;99.90;;;;;;4172224;28;20218;-78
2023/09/26 05:54:07;;;;;;;8.13;6.03;;;11.30;99.90;;;;;;4175187;28;20209;-75
2023/09/26 05:56:09;;;;;;;7.63;5.67;;;11.30;99.90;;;;;;4180396;28;20721;-74
2023/09/26 05:58:11;;;;;;;9.10;5.87;;;11.30;99.90;;;;;;4185326;28;20221;-75
2023/09/26 06:00:12;;;;;;;6.40;5.20;;;11.30;99.90;;;;;;4182795;28;20324;-75
2023/09/26 06:02:17;;;;;;;6.67;5.00;;;11.30;99.90;;;;;;4180956;28;20202;-75
2023/09/26 06:04:19;;;;;;;7.67;5.50;;;11.30;99.90;;;;;;4190191;28;20244;-75
2023/09/26 06:06:21;;;;;;;7.90;5.43;;;11.30;99.90;;;;;;4192786;28;20579;-80
2023/09/26 06:08:23;;;;;;;11.90;6.07;;;11.30;99.90;;;;;;4179066;28;20210;-80
2023/09/26 06:10:24;;;;;;;9.13;5.77;;;11.30;99.90;;;;;;4176573;28;20211;-77
2023/09/26 06:12:26;;;;;;;8.23;5.57;;;11.30;99.90;;;;;;4171177;28;20202;-77
2023/09/26 06:14:28;;;;;;;8.17;6.27;;;11.40;99.90;;;;;;4171375;28;20677;-77
2023/09/26 06:16:34;;;;;;;9.33;6.33;;;11.40;99.90;;;;;;4168119;28;20241;-77
2023/09/26 06:18:36;;;;;;;8.67;5.60;;;11.40;99.90;;;;;;4174100;28;20731;-77
2023/09/26 06:20:40;;;;;;;9.00;7.10;;;11.50;99.90;;;;;;4168583;28;20215;-77
2023/09/26 06:22:44;;;;;;;10.33;6.67;;;11.50;99.90;;;;;;4171015;28;20233;-77
2023/09/26 06:24:46;;;;;;;8.60;6.47;;;11.50;99.90;;;;;;4172022;28;20288;-77
2023/09/26 06:26:50;;;;;;;11.37;6.93;;;11.60;99.90;;;;;;4173466;28;20256;-78
2023/09/26 06:28:52;;;;;;;10.03;6.67;;;11.70;99.90;;;;;;4172966;28;20207;-77
2023/09/26 06:30:57;;;;;;;8.93;6.57;;;11.60;99.90;;;;;;4171032;28;20238;-78
2023/09/26 06:32:59;;;;;;;8.93;7.03;;;11.70;99.90;;;;;;4166868;28;20281;-77
2023/09/26 06:35:02;;;;;;;11.23;8.13;;;11.70;99.90;;;;;;4170804;28;20580;-78
2023/09/26 06:37:04;;;;;;;11.93;8.07;;;11.80;99.90;;;;;;4170896;28;20218;-76
2023/09/26 06:39:06;;;;;;;13.07;7.90;;;11.80;99.90;;;;;;4170192;28;20207;-77
2023/09/26 06:41:11;;;;;;;10.83;7.47;;;11.90;99.90;;;;;;4168390;28;20206;-77
2023/09/26 06:43:16;;;;;;;10.90;7.57;;;11.90;99.90;;;;;;4168251;28;20230;-76
2023/09/26 06:45:18;;;;;;;11.97;7.80;;;11.90;99.90;;;;;;4172812;28;20700;-75
2023/09/26 06:47:20;;;;;;;12.07;8.00;;;11.90;99.90;;;;;;4168352;28;20203;-77
2023/09/26 06:49:22;;;;;;;10.37;7.33;;;12.00;99.90;;;;;;4168164;28;20604;-77
2023/09/26 06:51:25;;;;;;;13.10;7.50;;;12.00;99.90;;;;;;4166987;28;20203;-77
2023/09/26 06:53:27;;;;;;;11.80;7.93;;;12.00;99.90;;;;;;4169123;28;20762;-77
2023/09/26 06:55:29;;;;;;;13.40;8.60;;;12.10;99.90;;;;;;4173754;28;20230;-77
2023/09/26 06:57:31;;;;;;;13.40;8.20;;;12.20;99.90;;;;;;4170223;28;20212;-76
2023/09/26 06:59:33;;;;;;;10.80;7.83;;;12.20;99.90;;;;;;4169500;28;20202;-77
2023/09/26 07:01:35;;;;;;;9.67;7.07;;;12.20;99.90;;;;;;4169697;28;20207;-76
2023/09/26 07:03:37;;;;;;;10.57;7.30;;;12.20;99.90;;;;;;4171457;28;20218;-77
2023/09/26 07:05:39;;;;;;;10.50;7.63;;;12.20;99.90;;;;;;4175315;28;20227;-77
2023/09/26 07:07:42;;;;;;;9.80;7.03;;;12.30;99.90;;;;;;4169304;28;20210;-76
2023/09/26 07:09:44;;;;;;;8.97;7.00;;;12.30;99.90;;;;;;4169352;28;20195;-77
2023/09/26 07:11:47;;;;;;;12.97;7.57;;;12.40;99.90;;;;;;4167033;28;20612;-76
2023/09/26 07:13:49;;;;;;;10.03;6.40;;;12.40;99.90;;;;;;4170428;28;20200;-77
2023/09/26 07:15:58;;;;;;;10.43;6.37;;;12.40;99.90;;;;;;4168422;28;20277;-77
2023/09/26 07:18:05;;;;;;;8.67;6.67;;;12.50;99.90;;;;;;4169671;28;20200;-77
2023/09/26 07:20:13;;;;;;;9.77;6.40;;;12.50;99.90;;;;;;4170540;28;20215;-77
2023/09/26 07:22:15;;;;;;;9.53;6.00;;;12.60;99.90;;;;;;4168213;28;20212;-77
2023/09/26 07:24:18;;;;;;;9.73;6.53;;;12.60;99.90;;;;;;4170913;28;20277;-76
2023/09/26 07:26:20;;;;;;;10.23;7.17;;;12.60;99.90;;;;;;4171000;28;20701;-76
2023/09/26 07:28:21;;;;;;;9.13;6.63;;;12.70;99.90;;;;;;4169436;28;20208;-76
2023/09/26 07:30:28;;;;;;;12.03;8.10;;;12.80;99.90;;;;;;4171032;28;21171;-76
2023/09/26 07:32:30;;;;;;;14.13;9.00;;;12.80;99.90;;;;;;4169143;28;20609;-76
2023/09/26 07:34:32;;;;;;;14.20;8.90;;;12.90;99.90;;;;;;4171059;28;20202;-76
2023/09/26 07:36:34;;;;;;;15.97;9.27;;;12.90;99.90;;;;;;4167477;28;20288;-76
2023/09/26 07:38:36;;;;;;;14.03;8.77;;;13.00;99.90;;;;;;4169764;28;20261;-75
2023/09/26 07:40:39;;;;;;;11.13;7.70;;;13.10;99.90;;;;;;4169534;28;20207;-76
2023/09/26 07:42:42;;;;;;;13.23;8.00;;;13.10;99.90;;;;;;4169776;28;20272;-76
2023/09/26 07:44:44;;;;;;;12.00;7.47;;;13.10;99.90;;;;;;4171909;28;20216;-77
2023/09/26 07:46:49;;;;;;;10.23;6.73;;;13.20;99.90;;;;;;4166713;28;20209;-77
2023/09/26 07:48:51;;;;;;;9.73;7.03;;;13.20;99.90;;;;;;4174117;28;20208;-76
2023/09/26 07:50:53;;;;;;;13.43;8.27;;;13.30;99.90;;;;;;4166875;28;20745;-76
2023/09/26 07:52:55;;;;;;;14.30;8.40;;;13.30;99.90;;;;;;4170250;28;20200;-76
2023/09/26 07:54:57;;;;;;;12.03;7.63;;;13.40;99.90;;;;;;4165239;28;20211;-76
2023/09/26 07:57:00;;;;;;;15.47;8.23;;;13.50;99.90;;;;;;4167560;28;20204;-76
2023/09/26 07:59:03;;;;;;;11.57;7.90;;;13.60;99.90;;;;;;4172328;28;20285;-75
2023/09/26 08:01:07;;;;;;;12.27;7.53;;;13.60;99.90;;;;;;4164036;28;20677;-76
2023/09/26 08:03:09;;;;;;;14.53;8.00;;;13.70;99.90;;;;;;4168795;28;20231;-76
2023/09/26 08:05:11;;;;;;;10.80;6.67;;;13.80;99.90;;;;;;4168366;28;20237;-76
2023/09/26 08:07:13;;;;;;;12.73;8.53;;;13.90;99.90;;;;;;4168328;28;20205;-75
2023/09/26 08:09:15;;;;;;;16.00;9.27;;;13.90;99.90;;;;;;4167472;28;20226;-75
2023/09/26 08:11:17;;;;;;;15.80;8.97;;;14.00;99.90;;;;;;4170869;28;20263;-75
2023/09/26 08:13:20;;;;;;;16.03;9.50;;;14.00;99.90;;;;;;4170130;28;20201;-74
2023/09/26 08:15:22;;;;;;;15.87;10.03;;;14.10;99.90;;;;;;4170918;28;21208;-75
2023/09/26 08:17:25;;;;;;;17.87;9.13;;;14.20;99.90;;;;;;4169088;28;20203;-75
2023/09/26 08:19:27;;;;;;;13.03;8.43;;;14.30;99.90;;;;;;4168805;28;21189;-75
2023/09/26 08:21:29;;;;;;;12.97;8.23;;;14.30;99.90;;;;;;4167082;28;20268;-75
2023/09/26 08:23:30;;;;;;;10.03;7.50;;;14.30;99.90;;;;;;4169195;28;20222;-75
2023/09/26 08:25:34;;;;;;;13.20;8.43;;;14.40;99.90;;;;;;4167097;28;20225;-76
2023/09/26 08:27:36;;;;;;;13.47;7.87;;;14.50;99.90;;;;;;4169544;28;20203;-75
2023/09/26 08:29:39;;;;;;;12.87;8.27;;;14.60;99.90;;;;;;4172962;28;20685;-76
2023/09/26 08:31:41;;;;;;;11.47;7.70;;;14.60;99.90;;;;;;4167925;28;20210;-75
2023/09/26 08:33:44;;;;;;;9.90;7.23;;;14.70;99.90;;;;;;4168256;28;20558;-76
2023/09/26 08:35:46;;;;;;;9.70;6.87;;;14.80;99.90;;;;;;4165747;28;20249;-75
2023/09/26 08:37:48;;;;;;;11.70;7.30;;;14.80;99.90;;;;;;4168600;28;20260;-75
2023/09/26 08:39:50;;;;;;;11.00;6.43;;;14.90;99.90;;;;;;4166839;28;20572;-75
2023/09/26 08:41:52;;;;;;;10.67;6.53;;;15.00;99.90;;;;;;4166821;28;20206;-75
2023/09/26 08:43:54;;;;;;;10.37;6.40;;;15.10;99.90;;;;;;4167488;28;20301;-75
2023/09/26 08:45:58;;;;;;;9.30;6.63;;;15.20;99.90;;;;;;4168556;28;20226;-76
2023/09/26 08:48:00;;;;;;;9.83;6.87;;;15.20;99.90;;;;;;4165132;28;20539;-75
2023/09/26 08:50:02;;;;;;;8.33;6.00;;;15.30;99.90;;;;;;4164866;28;20211;-76
2023/09/26 08:52:04;;;;;;;10.23;5.97;;;15.30;99.90;;;;;;4164054;28;20207;-76
2023/09/26 08:54:07;;;;;;;7.63;5.50;;;15.40;99.90;;;;;;4166798;28;20207;-75
2023/09/26 08:56:09;;;;;;;8.53;5.40;;;15.40;99.90;;;;;;4164040;28;20791;-76
2023/09/26 08:58:11;;;;;;;8.57;5.23;;;15.50;99.90;;;;;;4165306;28;20210;-76
2023/09/26 09:00:14;;;;;;;10.13;6.13;;;15.60;99.90;;;;;;4165029;28;20261;-76
2023/09/26 09:02:18;;;;;;;7.07;5.00;;;15.70;99.90;;;;;;4166954;28;20285;-75
2023/09/26 09:04:21;;;;;;;5.90;4.50;;;15.70;99.90;;;;;;4168049;28;20595;-76
2023/09/26 09:06:23;;;;;;;6.83;4.80;;;15.80;99.90;;;;;;4167930;28;20224;-75
2023/09/26 09:08:25;;;;;;;6.23;4.63;;;15.90;99.90;;;;;;4168915;28;20206;-75
2023/09/26 09:10:27;;;;;;;7.17;4.50;;;16.00;99.90;;;;;;4169095;28;20209;-75
2023/09/26 09:12:29;;;;;;;6.73;4.97;;;16.00;99.90;;;;;;4172296;28;20207;-75
2023/09/26 09:14:33;;;;;;;6.97;4.87;;;16.10;99.90;;;;;;4169210;28;20199;-75
2023/09/26 09:16:36;;;;;;;9.67;5.00;;;16.20;99.90;;;;;;4169018;28;20867;-75
2023/09/26 09:18:41;;;;;;;10.83;6.27;;;16.30;99.90;;;;;;4171647;28;20294;-76
2023/09/26 09:20:43;;;;;;;9.37;5.90;;;16.40;99.90;;;;;;4169849;28;20208;-76
2023/09/26 09:22:47;;;;;;;7.40;5.10;;;16.50;99.90;;;;;;4168853;28;20220;-76
2023/09/26 09:24:54;;;;;;;7.33;5.10;;;16.60;99.90;;;;;;4167140;28;20802;-75
2023/09/26 09:26:55;;;;;;;9.27;5.23;;;16.60;99.90;;;;;;4166973;28;20220;-74
2023/09/26 09:28:59;;;;;;;8.20;5.57;;;16.70;99.90;;;;;;4171310;28;20228;-75
2023/09/26 09:31:01;;;;;;;9.60;5.97;;;16.80;99.90;;;;;;4169428;28;20216;-76
2023/09/26 09:33:03;;;;;;;10.97;6.10;;;16.90;99.90;;;;;;4168465;28;20274;-76
2023/09/26 09:35:09;;;;;;;8.50;5.07;;;17.00;99.90;;;;;;4169249;28;20226;-75
2023/09/26 09:37:13;;;;;;;12.07;6.60;;;17.10;99.90;;;;;;4169062;28;20209;-75
2023/09/26 09:39:19;;;;;;;10.20;6.03;;;17.20;99.90;;;;;;4167390;28;20222;-75
2023/09/26 09:41:21;;;;;;;9.57;5.47;;;17.30;99.90;;;;;;4169117;28;20232;-74
2023/09/26 09:43:22;;;;;;;6.43;4.97;;;17.40;99.90;;;;;;4168348;28;20218;-72
2023/09/26 09:45:27;;;;;;;7.87;5.00;;;17.50;99.90;;;;;;4170730;28;20236;-73
2023/09/26 09:47:31;;;;;;;7.13;4.77;;;17.50;99.90;;;;;;4166490;28;20224;-76
2023/09/26 09:49:36;;;;;;;8.70;5.63;;;17.60;99.90;;;;;;4172028;28;20279;-72
2023/09/26 09:51:42;;;;;;;8.20;5.43;;;17.70;99.90;;;;;;4169375;28;20209;-74
2023/09/26 09:53:49;;;;;;;8.20;5.27;;;17.80;99.90;;;;;;4169993;28;20209;-76
2023/09/26 09:55:52;;;;;;;9.23;5.60;;;17.90;99.90;;;;;;4168905;28;20759;-76
2023/09/26 09:57:57;;;;;;;8.97;5.07;;;18.00;99.90;;;;;;4168089;28;20540;-73
2023/09/26 10:00:00;;;;;;;10.83;5.10;;;18.00;99.90;;;;;;4170100;28;20260;-73
2023/09/26 10:02:02;;;;;;;7.03;4.80;;;18.20;99.90;;;;;;4164641;28;20241;-77
2023/09/26 10:04:07;;;;;;;5.73;4.20;;;18.20;99.90;;;;;;4167346;28;20234;-74
2023/09/26 10:06:08;;;;;;;7.70;4.63;;;18.30;99.90;;;;;;4171820;28;20261;-77
2023/09/26 10:08:13;;;;;;;7.47;4.93;;;18.40;99.90;;;;;;4167076;28;20288;-76
2023/09/26 10:10:16;;;;;;;6.13;4.40;;;18.50;99.90;;;;;;4169893;28;20678;-76
2023/09/26 10:12:19;;;;;;;9.47;4.93;;;18.60;99.90;;;;;;4173116;28;20261;-73
2023/09/26 10:14:22;;;;;;;8.00;5.40;;;18.70;99.90;;;;;;4168381;28;20651;-73
2023/09/26 10:16:25;;;;;;;8.70;5.43;;;18.80;99.90;;;;;;4166037;28;21087;-73
2023/09/26 10:18:27;;;;;;;9.63;5.47;;;18.90;99.90;;;;;;4170006;28;20226;-73
2023/09/26 10:20:36;;;;;;;9.00;4.97;;;19.00;99.90;;;;;;4166767;28;20236;-73
2023/09/26 10:22:41;;;;;;;7.80;5.53;;;19.10;99.90;;;;;;4172905;28;20203;-74
2023/09/26 10:24:49;;;;;;;11.10;5.57;;;19.30;99.90;;;;;;4171637;28;20258;-76
2023/09/26 10:26:53;;;;;;;9.87;5.33;;;19.40;99.90;;;;;;4167778;28;20199;-76
2023/09/26 10:28:55;;;;;;;9.53;5.50;;;19.60;99.90;;;;;;4171648;28;20256;-77
2023/09/26 10:30:57;;;;;;;10.80;6.20;;;19.70;99.90;;;;;;4169679;28;20215;-76
2023/09/26 10:32:59;;;;;;;9.33;4.80;;;19.80;99.90;;;;;;4171643;28;20211;-75
2023/09/26 10:35:23;;;;;;;8.23;4.77;;;20.00;99.90;;;;;;4175296;28;20347;-75
2023/09/26 10:37:28;;;;;;;6.70;4.60;;;20.10;99.90;;;;;;4172025;28;20215;-75